sensor_id;sensor_type;location;lat;lon;timestamp;P1;durP1;ratioP1;P2;durP2;ratioP2
72123;SDS011;63818;37.134;-8.548;2023-07-28T00:04:28;9.8;;;6.0;;
72123;SDS011;63818;37.134;-8.548;2023-07-28T00:09:14;10.6;;;5.9;;
72123;SDS011;63818;37.134;-8.548;2023-07-28T00:14:00;11.2;;;5.7;;
72123;SDS011;63818;37.134;-8.548;2023-07-28T00:18:46;10.7;;;5.7;;
72123;SDS011;63818;37.134;-8.548;2023-07-28T00:23:31;10.7;;;6.0;;
72123;SDS011;63818;37.134;-8.548;2023-07-28T00:28:19;10.8;;;6.1;;
72123;SDS011;63818;37.134;-8.548;2023-07-28T00:33:05;10.1;;;5.9;;
72123;SDS011;63818;37.134;-8.548;2023-07-28T00:37:52;8.3;;;5.4;;
72123;SDS011;63818;37.134;-8.548;2023-07-28T00:42:37;10.4;;;5.4;;
72123;SDS011;63818;37.134;-8.548;2023-07-28T00:47:23;13.7;;;6.0;;
72123;SDS011;63818;37.134;-8.548;2023-07-28T00:52:10;12.5;;;6.1;;
72123;SDS011;63818;37.134;-8.548;2023-07-28T00:56:55;10.4;;;5.9;;
72123;SDS011;63818;37.134;-8.548;2023-07-28T01:01:41;11.6;;;5.8;;
72123;SDS011;63818;37.134;-8.548;2023-07-28T01:06:34;11.6;;;5.7;;
72123;SDS011;63818;37.134;-8.548;2023-07-28T01:11:28;9.6;;;5.8;;
72123;SDS011;63818;37.134;-8.548;2023-07-28T01:16:15;9.9;;;6.0;;
72123;SDS011;63818;37.134;-8.548;2023-07-28T01:21:02;9.9;;;6.2;;
72123;SDS011;63818;37.134;-8.548;2023-07-28T01:25:54;9.5;;;6.0;;
72123;SDS011;63818;37.134;-8.548;2023-07-28T01:30:44;10.3;;;5.9;;
72123;SDS011;63818;37.134;-8.548;2023-07-28T01:35:31;11.2;;;6.1;;
72123;SDS011;63818;37.134;-8.548;2023-07-28T01:40:17;11.8;;;6.1;;
72123;SDS011;63818;37.134;-8.548;2023-07-28T01:45:04;11.6;;;6.1;;
72123;SDS011;63818;37.134;-8.548;2023-07-28T01:49:50;14.0;;;6.2;;
72123;SDS011;63818;37.134;-8.548;2023-07-28T01:54:37;15.6;;;6.3;;
72123;SDS011;63818;37.134;-8.548;2023-07-28T01:59:23;12.2;;;6.4;;
72123;SDS011;63818;37.134;-8.548;2023-07-28T02:04:09;10.3;;;6.3;;
72123;SDS011;63818;37.134;-8.548;2023-07-28T02:08:55;10.9;;;5.9;;
72123;SDS011;63818;37.134;-8.548;2023-07-28T02:13:44;10.5;;;5.7;;
72123;SDS011;63818;37.134;-8.548;2023-07-28T02:18:29;10.6;;;6.0;;
72123;SDS011;63818;37.134;-8.548;2023-07-28T02:23:16;10.1;;;6.0;;
72123;SDS011;63818;37.134;-8.548;2023-07-28T02:28:02;10.8;;;5.8;;
72123;SDS011;63818;37.134;-8.548;2023-07-28T02:32:48;11.6;;;6.0;;
72123;SDS011;63818;37.134;-8.548;2023-07-28T02:37:34;9.3;;;6.0;;
72123;SDS011;63818;37.134;-8.548;2023-07-28T02:42:20;9.0;;;5.8;;
72123;SDS011;63818;37.134;-8.548;2023-07-28T02:47:08;10.5;;;6.1;;
72123;SDS011;63818;37.134;-8.548;2023-07-28T02:51:56;10.2;;;6.1;;
72123;SDS011;63818;37.134;-8.548;2023-07-28T02:56:44;9.2;;;5.7;;
72123;SDS011;63818;37.134;-8.548;2023-07-28T03:01:31;10.9;;;5.8;;
72123;SDS011;63818;37.134;-8.548;2023-07-28T03:06:17;13.5;;;5.9;;
72123;SDS011;63818;37.134;-8.548;2023-07-28T03:11:03;11.8;;;5.7;;
72123;SDS011;63818;37.134;-8.548;2023-07-28T03:15:51;9.1;;;5.7;;
72123;SDS011;63818;37.134;-8.548;2023-07-28T03:20:37;8.9;;;5.9;;
72123;SDS011;63818;37.134;-8.548;2023-07-28T03:25:23;8.9;;;5.9;;
72123;SDS011;63818;37.134;-8.548;2023-07-28T03:30:10;10.0;;;6.1;;
72123;SDS011;63818;37.134;-8.548;2023-07-28T03:34:56;10.6;;;6.1;;
72123;SDS011;63818;37.134;-8.548;2023-07-28T03:39:42;9.2;;;5.6;;
72123;SDS011;63818;37.134;-8.548;2023-07-28T03:44:30;10.0;;;5.8;;
72123;SDS011;63818;37.134;-8.548;2023-07-28T03:49:16;10.9;;;6.0;;
72123;SDS011;63818;37.134;-8.548;2023-07-28T03:54:04;11.3;;;5.9;;
72123;SDS011;63818;37.134;-8.548;2023-07-28T03:58:51;12.2;;;6.2;;
72123;SDS011;63818;37.134;-8.548;2023-07-28T04:03:37;13.1;;;6.2;;
72123;SDS011;63818;37.134;-8.548;2023-07-28T04:08:23;11.7;;;5.9;;
72123;SDS011;63818;37.134;-8.548;2023-07-28T04:13:10;9.9;;;5.7;;
72123;SDS011;63818;37.134;-8.548;2023-07-28T04:17:56;11.7;;;5.9;;
72123;SDS011;63818;37.134;-8.548;2023-07-28T04:22:42;11.8;;;6.2;;
72123;SDS011;63818;37.134;-8.548;2023-07-28T04:27:28;10.5;;;6.2;;
72123;SDS011;63818;37.134;-8.548;2023-07-28T04:32:16;10.7;;;6.2;;
72123;SDS011;63818;37.134;-8.548;2023-07-28T04:37:02;11.6;;;6.2;;
72123;SDS011;63818;37.134;-8.548;2023-07-28T04:41:51;10.9;;;6.2;;
72123;SDS011;63818;37.134;-8.548;2023-07-28T04:46:37;9.7;;;6.2;;
72123;SDS011;63818;37.134;-8.548;2023-07-28T04:51:22;10.2;;;6.1;;
72123;SDS011;63818;37.134;-8.548;2023-07-28T04:56:08;10.4;;;6.0;;
72123;SDS011;63818;37.134;-8.548;2023-07-28T05:00:54;9.7;;;6.1;;
72123;SDS011;63818;37.134;-8.548;2023-07-28T05:05:42;10.8;;;5.9;;
72123;SDS011;63818;37.134;-8.548;2023-07-28T05:10:28;10.5;;;6.0;;
72123;SDS011;63818;37.134;-8.548;2023-07-28T05:15:15;9.2;;;6.2;;
72123;SDS011;63818;37.134;-8.548;2023-07-28T05:20:00;10.8;;;6.1;;
72123;SDS011;63818;37.134;-8.548;2023-07-28T05:24:46;12.0;;;6.0;;
72123;SDS011;63818;37.134;-8.548;2023-07-28T05:29:35;10.2;;;5.9;;
72123;SDS011;63818;37.134;-8.548;2023-07-28T05:34:21;9.0;;;6.0;;
72123;SDS011;63818;37.134;-8.548;2023-07-28T05:39:07;10.4;;;6.3;;
72123;SDS011;63818;37.134;-8.548;2023-07-28T05:43:53;12.6;;;6.7;;
72123;SDS011;63818;37.134;-8.548;2023-07-28T05:48:39;12.1;;;6.5;;
72123;SDS011;63818;37.134;-8.548;2023-07-28T05:53:25;9.9;;;6.1;;
72123;SDS011;63818;37.134;-8.548;2023-07-28T05:58:11;9.9;;;5.9;;
72123;SDS011;63818;37.134;-8.548;2023-07-28T06:02:58;11.4;;;6.0;;
72123;SDS011;63818;37.134;-8.548;2023-07-28T06:07:44;11.5;;;6.0;;
72123;SDS011;63818;37.134;-8.548;2023-07-28T06:12:32;12.1;;;6.0;;
72123;SDS011;63818;37.134;-8.548;2023-07-28T06:17:18;12.6;;;6.0;;
72123;SDS011;63818;37.134;-8.548;2023-07-28T06:22:05;10.7;;;5.9;;
72123;SDS011;63818;37.134;-8.548;2023-07-28T06:26:51;10.2;;;6.0;;
72123;SDS011;63818;37.134;-8.548;2023-07-28T06:31:37;10.2;;;6.0;;
72123;SDS011;63818;37.134;-8.548;2023-07-28T06:36:23;11.0;;;5.9;;
72123;SDS011;63818;37.134;-8.548;2023-07-28T06:41:09;11.9;;;6.1;;
72123;SDS011;63818;37.134;-8.548;2023-07-28T06:45:55;10.3;;;6.2;;
72123;SDS011;63818;37.134;-8.548;2023-07-28T06:50:41;9.7;;;6.2;;
72123;SDS011;63818;37.134;-8.548;2023-07-28T06:55:27;10.1;;;6.0;;
72123;SDS011;63818;37.134;-8.548;2023-07-28T07:00:16;11.0;;;5.8;;
72123;SDS011;63818;37.134;-8.548;2023-07-28T07:05:03;11.9;;;5.8;;
72123;SDS011;63818;37.134;-8.548;2023-07-28T07:09:49;13.2;;;6.1;;
72123;SDS011;63818;37.134;-8.548;2023-07-28T07:14:35;12.5;;;6.4;;
72123;SDS011;63818;37.134;-8.548;2023-07-28T07:19:21;10.6;;;6.0;;
72123;SDS011;63818;37.134;-8.548;2023-07-28T07:24:07;11.5;;;5.7;;
72123;SDS011;63818;37.134;-8.548;2023-07-28T07:28:54;11.0;;;5.7;;
72123;SDS011;63818;37.134;-8.548;2023-07-28T07:33:42;10.7;;;5.8;;
72123;SDS011;63818;37.134;-8.548;2023-07-28T07:38:28;11.1;;;5.9;;
72123;SDS011;63818;37.134;-8.548;2023-07-28T07:43:14;12.9;;;6.0;;
72123;SDS011;63818;37.134;-8.548;2023-07-28T07:48:00;13.6;;;6.1;;
72123;SDS011;63818;37.134;-8.548;2023-07-28T07:52:46;10.4;;;5.9;;
72123;SDS011;63818;37.134;-8.548;2023-07-28T07:57:33;10.5;;;5.8;;
72123;SDS011;63818;37.134;-8.548;2023-07-28T08:02:21;11.1;;;5.9;;
72123;SDS011;63818;37.134;-8.548;2023-07-28T08:07:08;10.8;;;5.9;;
72123;SDS011;63818;37.134;-8.548;2023-07-28T08:11:54;10.8;;;6.0;;
72123;SDS011;63818;37.134;-8.548;2023-07-28T08:16:40;9.5;;;5.8;;
72123;SDS011;63818;37.134;-8.548;2023-07-28T08:21:26;9.9;;;5.7;;
72123;SDS011;63818;37.134;-8.548;2023-07-28T08:26:14;9.8;;;5.9;;
72123;SDS011;63818;37.134;-8.548;2023-07-28T08:31:00;9.3;;;5.7;;
72123;SDS011;63818;37.134;-8.548;2023-07-28T08:35:46;9.5;;;5.7;;
72123;SDS011;63818;37.134;-8.548;2023-07-28T08:40:35;9.3;;;6.0;;
72123;SDS011;63818;37.134;-8.548;2023-07-28T08:45:22;9.9;;;6.0;;
72123;SDS011;63818;37.134;-8.548;2023-07-28T08:50:10;10.8;;;6.0;;
72123;SDS011;63818;37.134;-8.548;2023-07-28T08:54:59;10.4;;;5.8;;
72123;SDS011;63818;37.134;-8.548;2023-07-28T08:59:45;9.1;;;5.7;;
72123;SDS011;63818;37.134;-8.548;2023-07-28T09:04:34;9.6;;;5.8;;
72123;SDS011;63818;37.134;-8.548;2023-07-28T09:09:21;10.9;;;6.1;;
72123;SDS011;63818;37.134;-8.548;2023-07-28T09:14:08;10.4;;;6.3;;
72123;SDS011;63818;37.134;-8.548;2023-07-28T09:19:05;10.1;;;6.2;;
72123;SDS011;63818;37.134;-8.548;2023-07-28T09:23:52;12.2;;;6.2;;
72123;SDS011;63818;37.134;-8.548;2023-07-28T09:28:41;13.0;;;6.1;;
72123;SDS011;63818;37.134;-8.548;2023-07-28T09:33:31;11.8;;;6.5;;
72123;SDS011;63818;37.134;-8.548;2023-07-28T09:38:18;12.3;;;6.6;;
72123;SDS011;63818;37.134;-8.548;2023-07-28T09:43:04;12.5;;;6.4;;
72123;SDS011;63818;37.134;-8.548;2023-07-28T09:47:50;11.9;;;6.3;;
72123;SDS011;63818;37.134;-8.548;2023-07-28T09:52:42;13.5;;;6.0;;
72123;SDS011;63818;37.134;-8.548;2023-07-28T09:57:29;12.6;;;6.0;;
72123;SDS011;63818;37.134;-8.548;2023-07-28T10:02:21;11.5;;;6.0;;
72123;SDS011;63818;37.134;-8.548;2023-07-28T10:07:07;12.3;;;6.0;;
72123;SDS011;63818;37.134;-8.548;2023-07-28T10:11:55;11.1;;;6.1;;
72123;SDS011;63818;37.134;-8.548;2023-07-28T10:16:41;10.7;;;6.1;;
72123;SDS011;63818;37.134;-8.548;2023-07-28T10:21:29;12.2;;;6.3;;
72123;SDS011;63818;37.134;-8.548;2023-07-28T10:26:15;13.0;;;6.5;;
72123;SDS011;63818;37.134;-8.548;2023-07-28T10:31:19;13.5;;;6.4;;
72123;SDS011;63818;37.134;-8.548;2023-07-28T10:36:17;12.6;;;6.0;;
72123;SDS011;63818;37.134;-8.548;2023-07-28T10:41:10;13.4;;;6.1;;
72123;SDS011;63818;37.134;-8.548;2023-07-28T10:45:57;14.0;;;6.1;;
72123;SDS011;63818;37.134;-8.548;2023-07-28T10:50:45;14.4;;;6.0;;
72123;SDS011;63818;37.134;-8.548;2023-07-28T10:55:31;14.0;;;6.1;;
72123;SDS011;63818;37.134;-8.548;2023-07-28T11:00:17;10.0;;;6.0;;
72123;SDS011;63818;37.134;-8.548;2023-07-28T11:05:09;8.7;;;5.7;;
72123;SDS011;63818;37.134;-8.548;2023-07-28T11:09:56;8.9;;;5.8;;
72123;SDS011;63818;37.134;-8.548;2023-07-28T11:14:42;9.3;;;6.2;;
72123;SDS011;63818;37.134;-8.548;2023-07-28T11:19:28;10.0;;;6.3;;
72123;SDS011;63818;37.134;-8.548;2023-07-28T11:24:17;10.6;;;6.3;;
72123;SDS011;63818;37.134;-8.548;2023-07-28T11:29:04;12.3;;;6.6;;
72123;SDS011;63818;37.134;-8.548;2023-07-28T11:33:50;12.5;;;7.0;;
72123;SDS011;63818;37.134;-8.548;2023-07-28T11:38:37;11.8;;;6.8;;
72123;SDS011;63818;37.134;-8.548;2023-07-28T11:43:23;12.2;;;6.6;;
72123;SDS011;63818;37.134;-8.548;2023-07-28T11:48:10;11.1;;;6.5;;
72123;SDS011;63818;37.134;-8.548;2023-07-28T11:52:56;11.3;;;7.3;;
72123;SDS011;63818;37.134;-8.548;2023-07-28T11:57:43;12.4;;;7.9;;
72123;SDS011;63818;37.134;-8.548;2023-07-28T12:02:30;13.0;;;6.9;;
72123;SDS011;63818;37.134;-8.548;2023-07-28T12:07:17;13.7;;;6.4;;
72123;SDS011;63818;37.134;-8.548;2023-07-28T12:12:04;13.9;;;6.3;;
72123;SDS011;63818;37.134;-8.548;2023-07-28T12:16:50;12.2;;;6.2;;
72123;SDS011;63818;37.134;-8.548;2023-07-28T12:21:36;10.7;;;6.4;;
72123;SDS011;63818;37.134;-8.548;2023-07-28T12:26:22;10.7;;;6.3;;
72123;SDS011;63818;37.134;-8.548;2023-07-28T12:31:09;11.4;;;6.1;;
72123;SDS011;63818;37.134;-8.548;2023-07-28T12:35:54;12.7;;;6.2;;
72123;SDS011;63818;37.134;-8.548;2023-07-28T12:40:40;11.8;;;6.3;;
72123;SDS011;63818;37.134;-8.548;2023-07-28T12:45:27;10.3;;;6.1;;
72123;SDS011;63818;37.134;-8.548;2023-07-28T12:50:14;9.8;;;5.7;;
72123;SDS011;63818;37.134;-8.548;2023-07-28T12:55:01;10.4;;;6.1;;
72123;SDS011;63818;37.134;-8.548;2023-07-28T12:59:47;10.3;;;6.2;;
72123;SDS011;63818;37.134;-8.548;2023-07-28T13:04:33;10.3;;;5.9;;
72123;SDS011;63818;37.134;-8.548;2023-07-28T13:09:20;10.9;;;6.0;;
72123;SDS011;63818;37.134;-8.548;2023-07-28T13:14:06;10.1;;;6.0;;
72123;SDS011;63818;37.134;-8.548;2023-07-28T13:18:52;10.2;;;6.4;;
72123;SDS011;63818;37.134;-8.548;2023-07-28T13:23:39;12.6;;;6.6;;
72123;SDS011;63818;37.134;-8.548;2023-07-28T13:28:25;12.3;;;6.2;;
72123;SDS011;63818;37.134;-8.548;2023-07-28T13:33:12;12.3;;;6.1;;
72123;SDS011;63818;37.134;-8.548;2023-07-28T13:37:58;14.6;;;6.3;;
72123;SDS011;63818;37.134;-8.548;2023-07-28T13:42:44;14.3;;;6.3;;
72123;SDS011;63818;37.134;-8.548;2023-07-28T13:47:30;12.0;;;6.1;;
72123;SDS011;63818;37.134;-8.548;2023-07-28T13:52:16;11.5;;;5.9;;
72123;SDS011;63818;37.134;-8.548;2023-07-28T13:57:04;10.6;;;5.7;;
72123;SDS011;63818;37.134;-8.548;2023-07-28T14:01:51;9.5;;;5.5;;
72123;SDS011;63818;37.134;-8.548;2023-07-28T14:06:37;10.4;;;5.4;;
72123;SDS011;63818;37.134;-8.548;2023-07-28T14:11:23;10.8;;;5.4;;
72123;SDS011;63818;37.134;-8.548;2023-07-28T14:16:09;10.2;;;5.3;;
72123;SDS011;63818;37.134;-8.548;2023-07-28T14:20:55;10.4;;;5.5;;
72123;SDS011;63818;37.134;-8.548;2023-07-28T14:25:44;10.7;;;5.7;;
72123;SDS011;63818;37.134;-8.548;2023-07-28T14:30:30;16.3;;;5.9;;
72123;SDS011;63818;37.134;-8.548;2023-07-28T14:35:16;16.3;;;5.9;;
72123;SDS011;63818;37.134;-8.548;2023-07-28T14:40:02;10.8;;;5.5;;
72123;SDS011;63818;37.134;-8.548;2023-07-28T14:44:49;10.2;;;5.2;;
72123;SDS011;63818;37.134;-8.548;2023-07-28T14:49:35;11.4;;;5.5;;
72123;SDS011;63818;37.134;-8.548;2023-07-28T14:54:21;14.5;;;5.6;;
72123;SDS011;63818;37.134;-8.548;2023-07-28T14:59:07;12.4;;;5.3;;
72123;SDS011;63818;37.134;-8.548;2023-07-28T15:03:54;11.6;;;5.5;;
72123;SDS011;63818;37.134;-8.548;2023-07-28T15:08:40;12.6;;;5.5;;
72123;SDS011;63818;37.134;-8.548;2023-07-28T15:13:26;12.9;;;5.2;;
72123;SDS011;63818;37.134;-8.548;2023-07-28T15:18:12;14.8;;;5.7;;
72123;SDS011;63818;37.134;-8.548;2023-07-28T15:23:01;16.6;;;6.0;;
72123;SDS011;63818;37.134;-8.548;2023-07-28T15:27:47;13.2;;;5.6;;
72123;SDS011;63818;37.134;-8.548;2023-07-28T15:32:35;9.9;;;5.5;;
72123;SDS011;63818;37.134;-8.548;2023-07-28T15:37:22;11.5;;;5.5;;
72123;SDS011;63818;37.134;-8.548;2023-07-28T15:42:08;11.7;;;5.4;;
72123;SDS011;63818;37.134;-8.548;2023-07-28T15:46:56;9.9;;;5.5;;
72123;SDS011;63818;37.134;-8.548;2023-07-28T15:51:43;8.5;;;5.3;;
72123;SDS011;63818;37.134;-8.548;2023-07-28T15:56:29;9.7;;;5.2;;
72123;SDS011;63818;37.134;-8.548;2023-07-28T16:01:15;12.7;;;5.7;;
72123;SDS011;63818;37.134;-8.548;2023-07-28T16:06:01;12.4;;;5.6;;
72123;SDS011;63818;37.134;-8.548;2023-07-28T16:10:47;10.1;;;5.6;;
72123;SDS011;63818;37.134;-8.548;2023-07-28T16:15:33;10.0;;;5.7;;
72123;SDS011;63818;37.134;-8.548;2023-07-28T16:20:20;11.2;;;5.5;;
72123;SDS011;63818;37.134;-8.548;2023-07-28T16:25:06;11.4;;;5.5;;
72123;SDS011;63818;37.134;-8.548;2023-07-28T16:29:52;10.3;;;5.7;;
72123;SDS011;63818;37.134;-8.548;2023-07-28T16:34:38;10.1;;;5.6;;
72123;SDS011;63818;37.134;-8.548;2023-07-28T16:39:25;11.8;;;5.6;;
72123;SDS011;63818;37.134;-8.548;2023-07-28T16:44:11;11.3;;;5.6;;
72123;SDS011;63818;37.134;-8.548;2023-07-28T16:48:57;12.4;;;5.4;;
72123;SDS011;63818;37.134;-8.548;2023-07-28T16:53:44;13.5;;;5.5;;
72123;SDS011;63818;37.134;-8.548;2023-07-28T16:58:29;13.1;;;5.8;;
72123;SDS011;63818;37.134;-8.548;2023-07-28T17:03:16;12.9;;;5.6;;
72123;SDS011;63818;37.134;-8.548;2023-07-28T17:08:03;14.6;;;5.4;;
72123;SDS011;63818;37.134;-8.548;2023-07-28T17:12:49;13.9;;;5.5;;
72123;SDS011;63818;37.134;-8.548;2023-07-28T17:17:36;11.0;;;5.3;;
72123;SDS011;63818;37.134;-8.548;2023-07-28T17:22:22;11.8;;;5.4;;
72123;SDS011;63818;37.134;-8.548;2023-07-28T17:27:10;11.4;;;5.5;;
72123;SDS011;63818;37.134;-8.548;2023-07-28T17:31:56;14.7;;;5.5;;
72123;SDS011;63818;37.134;-8.548;2023-07-28T17:36:42;13.9;;;5.4;;
72123;SDS011;63818;37.134;-8.548;2023-07-28T17:41:28;10.5;;;5.2;;
72123;SDS011;63818;37.134;-8.548;2023-07-28T17:46:14;12.5;;;5.5;;
72123;SDS011;63818;37.134;-8.548;2023-07-28T17:51:01;12.4;;;5.5;;
72123;SDS011;63818;37.134;-8.548;2023-07-28T17:55:46;11.6;;;5.5;;
72123;SDS011;63818;37.134;-8.548;2023-07-28T18:00:32;11.4;;;5.6;;
72123;SDS011;63818;37.134;-8.548;2023-07-28T18:05:19;11.3;;;5.5;;
72123;SDS011;63818;37.134;-8.548;2023-07-28T18:10:05;10.4;;;5.3;;
72123;SDS011;63818;37.134;-8.548;2023-07-28T18:14:51;9.0;;;5.4;;
72123;SDS011;63818;37.134;-8.548;2023-07-28T18:19:37;9.3;;;5.4;;
72123;SDS011;63818;37.134;-8.548;2023-07-28T18:24:23;9.8;;;5.3;;
72123;SDS011;63818;37.134;-8.548;2023-07-28T18:29:09;10.7;;;5.5;;
72123;SDS011;63818;37.134;-8.548;2023-07-28T18:33:55;9.7;;;5.4;;
72123;SDS011;63818;37.134;-8.548;2023-07-28T18:38:43;8.7;;;5.4;;
72123;SDS011;63818;37.134;-8.548;2023-07-28T18:43:29;12.1;;;5.4;;
72123;SDS011;63818;37.134;-8.548;2023-07-28T18:48:15;13.0;;;5.3;;
72123;SDS011;63818;37.134;-8.548;2023-07-28T18:53:01;13.7;;;5.4;;
72123;SDS011;63818;37.134;-8.548;2023-07-28T18:57:47;12.1;;;5.2;;
72123;SDS011;63818;37.134;-8.548;2023-07-28T19:02:33;9.0;;;5.4;;
72123;SDS011;63818;37.134;-8.548;2023-07-28T19:07:19;9.3;;;5.5;;
72123;SDS011;63818;37.134;-8.548;2023-07-28T19:12:10;10.1;;;5.1;;
72123;SDS011;63818;37.134;-8.548;2023-07-28T19:16:57;10.1;;;5.3;;
72123;SDS011;63818;37.134;-8.548;2023-07-28T19:21:42;8.8;;;5.4;;
72123;SDS011;63818;37.134;-8.548;2023-07-28T19:26:28;10.1;;;5.2;;
72123;SDS011;63818;37.134;-8.548;2023-07-28T19:31:14;10.8;;;5.3;;
72123;SDS011;63818;37.134;-8.548;2023-07-28T19:36:00;9.6;;;5.5;;
72123;SDS011;63818;37.134;-8.548;2023-07-28T19:40:46;9.6;;;5.8;;
72123;SDS011;63818;37.134;-8.548;2023-07-28T19:45:32;9.9;;;5.7;;
72123;SDS011;63818;37.134;-8.548;2023-07-28T19:50:19;10.2;;;5.2;;
72123;SDS011;63818;37.134;-8.548;2023-07-28T19:55:05;10.7;;;5.3;;
72123;SDS011;63818;37.134;-8.548;2023-07-28T19:59:51;10.3;;;5.3;;
72123;SDS011;63818;37.134;-8.548;2023-07-28T20:04:37;9.3;;;5.3;;
72123;SDS011;63818;37.134;-8.548;2023-07-28T20:09:23;10.4;;;5.1;;
72123;SDS011;63818;37.134;-8.548;2023-07-28T20:14:09;12.1;;;5.4;;
72123;SDS011;63818;37.134;-8.548;2023-07-28T20:18:56;11.1;;;5.3;;
72123;SDS011;63818;37.134;-8.548;2023-07-28T20:23:42;10.2;;;5.1;;
72123;SDS011;63818;37.134;-8.548;2023-07-28T20:28:28;9.5;;;5.0;;
72123;SDS011;63818;37.134;-8.548;2023-07-28T20:33:14;10.7;;;5.1;;
72123;SDS011;63818;37.134;-8.548;2023-07-28T20:38:00;12.0;;;5.3;;
72123;SDS011;63818;37.134;-8.548;2023-07-28T20:42:46;12.1;;;5.7;;
72123;SDS011;63818;37.134;-8.548;2023-07-28T20:47:32;11.3;;;5.8;;
72123;SDS011;63818;37.134;-8.548;2023-07-28T20:52:18;9.2;;;5.3;;
72123;SDS011;63818;37.134;-8.548;2023-07-28T20:57:04;9.3;;;5.1;;
72123;SDS011;63818;37.134;-8.548;2023-07-28T21:01:50;9.2;;;5.2;;
72123;SDS011;63818;37.134;-8.548;2023-07-28T21:06:36;8.9;;;5.3;;
72123;SDS011;63818;37.134;-8.548;2023-07-28T21:11:22;9.1;;;5.2;;
72123;SDS011;63818;37.134;-8.548;2023-07-28T21:16:08;10.6;;;5.0;;
72123;SDS011;63818;37.134;-8.548;2023-07-28T21:20:54;10.1;;;4.8;;
72123;SDS011;63818;37.134;-8.548;2023-07-28T21:25:43;8.1;;;4.8;;
72123;SDS011;63818;37.134;-8.548;2023-07-28T21:30:29;9.6;;;5.2;;
72123;SDS011;63818;37.134;-8.548;2023-07-28T21:35:17;9.9;;;5.3;;
72123;SDS011;63818;37.134;-8.548;2023-07-28T21:40:03;8.0;;;4.7;;
72123;SDS011;63818;37.134;-8.548;2023-07-28T21:44:49;7.3;;;4.5;;
72123;SDS011;63818;37.134;-8.548;2023-07-28T21:49:35;8.0;;;4.8;;
72123;SDS011;63818;37.134;-8.548;2023-07-28T21:54:22;8.8;;;4.8;;
72123;SDS011;63818;37.134;-8.548;2023-07-28T21:59:08;9.1;;;4.9;;
72123;SDS011;63818;37.134;-8.548;2023-07-28T22:03:55;8.4;;;4.8;;
72123;SDS011;63818;37.134;-8.548;2023-07-28T22:08:41;8.6;;;4.7;;
72123;SDS011;63818;37.134;-8.548;2023-07-28T22:13:30;12.2;;;5.1;;
72123;SDS011;63818;37.134;-8.548;2023-07-28T22:18:16;12.1;;;5.1;;
72123;SDS011;63818;37.134;-8.548;2023-07-28T22:23:02;8.9;;;4.8;;
72123;SDS011;63818;37.134;-8.548;2023-07-28T22:27:48;8.6;;;4.9;;
72123;SDS011;63818;37.134;-8.548;2023-07-28T22:32:34;9.2;;;5.0;;
72123;SDS011;63818;37.134;-8.548;2023-07-28T22:37:23;8.8;;;5.0;;
72123;SDS011;63818;37.134;-8.548;2023-07-28T22:42:09;9.3;;;5.1;;
72123;SDS011;63818;37.134;-8.548;2023-07-28T22:46:55;9.6;;;5.1;;
72123;SDS011;63818;37.134;-8.548;2023-07-28T22:51:41;8.4;;;4.8;;
72123;SDS011;63818;37.134;-8.548;2023-07-28T22:56:27;10.4;;;4.9;;
72123;SDS011;63818;37.134;-8.548;2023-07-28T23:01:13;10.3;;;5.0;;
72123;SDS011;63818;37.134;-8.548;2023-07-28T23:05:59;9.4;;;4.8;;
72123;SDS011;63818;37.134;-8.548;2023-07-28T23:10:45;10.7;;;5.0;;
72123;SDS011;63818;37.134;-8.548;2023-07-28T23:15:31;9.4;;;5.1;;
72123;SDS011;63818;37.134;-8.548;2023-07-28T23:20:20;8.6;;;4.9;;
72123;SDS011;63818;37.134;-8.548;2023-07-28T23:25:06;9.1;;;4.8;;
72123;SDS011;63818;37.134;-8.548;2023-07-28T23:29:53;9.5;;;4.9;;
72123;SDS011;63818;37.134;-8.548;2023-07-28T23:34:39;8.8;;;4.9;;
72123;SDS011;63818;37.134;-8.548;2023-07-28T23:39:26;8.1;;;4.9;;
72123;SDS011;63818;37.134;-8.548;2023-07-28T23:44:13;9.6;;;5.1;;
72123;SDS011;63818;37.134;-8.548;2023-07-28T23:48:59;9.9;;;4.9;;
72123;SDS011;63818;37.134;-8.548;2023-07-28T23:53:45;8.5;;;4.7;;
72123;SDS011;63818;37.134;-8.548;2023-07-28T23:58:31;8.7;;;5.0;;
